createdAt,value
2018-05-13T02:46:06.347Z,3
2018-05-13T02:54:36.884Z,7
2018-05-13T02:58:07.083Z,10
2018-05-13T03:00:37.268Z,13
2018-05-13T03:02:37.374Z,17
2018-05-13T03:03:37.425Z,20
2018-05-13T03:05:07.485Z,23
2018-05-13T03:06:07.571Z,27
2018-05-13T03:07:07.617Z,30
2018-05-13T03:08:07.706Z,33
2018-05-13T03:08:37.681Z,37
2018-05-13T03:09:07.747Z,40
2018-05-13T03:10:07.787Z,43
2018-05-13T03:10:37.809Z,47
2018-05-13T03:11:07.836Z,50
2018-05-13T03:11:37.891Z,53
2018-05-13T03:12:07.900Z,57
2018-05-13T03:12:37.926Z,60
2018-05-13T03:13:07.985Z,67
2018-05-13T03:13:38.013Z,70
2018-05-13T03:14:08.019Z,73
2018-05-13T03:14:38.050Z,80
2018-05-13T03:15:08.089Z,83
2018-05-13T03:15:38.142Z,90
2018-05-13T03:16:08.143Z,93
2018-05-13T03:16:38.193Z,100
2018-05-13T03:17:08.268Z,107
2018-05-13T03:17:38.243Z,110
2018-05-13T03:18:08.278Z,117
2018-05-13T03:18:38.357Z,123
2018-05-13T03:19:08.391Z,130
2018-05-13T03:19:38.399Z,137
2018-05-13T03:20:08.417Z,143
2018-05-13T03:20:38.512Z,150
2018-05-13T03:21:08.494Z,160
2018-05-13T03:21:38.515Z,167
2018-05-13T03:22:08.553Z,177
2018-05-13T03:22:38.622Z,187
2018-05-13T03:23:08.700Z,193
2018-05-13T03:23:38.664Z,203
2018-05-13T03:24:08.681Z,213
2018-05-13T03:24:38.725Z,220
2018-05-13T03:25:08.726Z,230
2018-05-13T03:25:38.781Z,240
2018-05-13T03:26:08.808Z,253
2018-05-13T03:26:38.838Z,263
2018-05-13T03:27:08.854Z,273
2018-05-13T03:27:38.879Z,287
2018-05-13T03:28:08.897Z,300
2018-05-13T03:28:38.976Z,310
2018-05-13T03:29:08.979Z,323
2018-05-13T03:29:39.011Z,337
2018-05-13T03:30:09.003Z,350
2018-05-13T03:30:39.120Z,363
2018-05-13T03:31:09.100Z,380
2018-05-13T03:31:39.114Z,393
2018-05-13T03:32:09.163Z,410
2018-05-13T03:32:39.219Z,423
2018-05-13T03:33:09.186Z,437
2018-05-13T03:33:39.225Z,453
2018-05-13T03:34:09.300Z,470
2018-05-13T03:34:39.291Z,483
2018-05-13T03:35:09.343Z,503
2018-05-13T03:35:39.407Z,520
2018-05-13T03:36:09.402Z,537
2018-05-13T03:36:39.497Z,553
2018-05-13T03:37:09.478Z,570
2018-05-13T03:37:39.499Z,590
2018-05-13T03:38:09.550Z,607
2018-05-13T03:38:39.595Z,627
2018-05-13T03:39:09.585Z,640
2018-05-13T03:39:39.653Z,660
2018-05-13T03:40:09.637Z,680
2018-05-13T03:40:39.761Z,700
2018-05-13T03:41:09.730Z,720
2018-05-13T03:41:39.818Z,740
2018-05-13T03:42:09.780Z,763
2018-05-13T03:42:39.873Z,783
2018-05-13T03:43:09.849Z,807
2018-05-13T03:43:39.916Z,830
2018-05-13T03:44:09.990Z,853
2018-05-13T03:44:39.926Z,877
2018-05-13T03:45:10.039Z,900
2018-05-13T03:45:40.050Z,923
2018-05-13T03:46:10.031Z,950
2018-05-13T03:46:40.091Z,973
2018-05-13T03:47:10.081Z,997
2018-05-13T03:47:40.182Z,1020
2018-05-13T03:48:10.143Z,1047
2018-05-13T03:48:40.190Z,1070
2018-05-13T03:49:10.199Z,1093
2018-05-13T03:49:40.345Z,1120
2018-05-13T03:50:10.329Z,1147
2018-05-13T03:50:40.338Z,1177
2018-05-13T03:51:10.324Z,1207
2018-05-13T03:51:40.352Z,1233
2018-05-13T03:52:10.377Z,1263
2018-05-13T03:52:40.414Z,1290
2018-05-13T03:53:10.478Z,1320
2018-05-13T03:53:40.481Z,1350
2018-05-13T03:54:10.498Z,1380
2018-05-13T03:54:40.560Z,1417
2018-05-13T03:55:10.560Z,1450
2018-05-13T03:55:40.864Z,1483
2018-05-13T03:56:10.614Z,1513
2018-05-13T03:56:40.670Z,1550
2018-05-13T03:57:10.686Z,1590
2018-05-13T03:57:40.716Z,1630
2018-05-13T03:58:10.732Z,1667
2018-05-13T03:58:40.769Z,1707
2018-05-13T03:59:10.831Z,1747
2018-05-13T03:59:40.857Z,1790
2018-05-13T04:00:10.909Z,1840
2018-05-13T04:00:40.961Z,1883
2018-05-13T04:01:10.933Z,1930
2018-05-13T04:01:40.954Z,1980
2018-05-13T04:02:11.019Z,2030
2018-05-13T04:02:41.047Z,2083
2018-05-13T04:03:11.055Z,2133
2018-05-13T04:03:41.166Z,2180
2018-05-13T04:04:11.103Z,2230
2018-05-13T04:04:41.162Z,2270
2018-05-13T04:05:11.210Z,2320
2018-05-13T04:05:41.256Z,2360
2018-05-13T04:06:11.296Z,2403
2018-05-13T04:06:41.326Z,2447
2018-05-13T04:07:11.336Z,2487
2018-05-13T04:07:41.348Z,2520
2018-05-13T04:08:11.406Z,2547
2018-05-13T04:08:41.453Z,2567
2018-05-13T04:09:11.468Z,2587
2018-05-13T04:09:41.482Z,2613
2018-05-13T04:10:11.538Z,2643
2018-05-13T04:10:41.566Z,2673
2018-05-13T04:11:11.614Z,2707
2018-05-13T04:11:41.598Z,2740
2018-05-13T04:12:11.638Z,2777
2018-05-13T04:12:41.672Z,2820
2018-05-13T04:13:11.698Z,2870
2018-05-13T04:13:41.737Z,2920
2018-05-13T04:14:11.784Z,2977
2018-05-13T04:14:41.788Z,3033
2018-05-13T04:15:11.831Z,3083
2018-05-13T04:15:41.900Z,3133
2018-05-13T04:16:11.890Z,3193
2018-05-13T04:16:41.928Z,3230
2018-05-13T04:17:11.926Z,3263
2018-05-13T04:17:41.978Z,3300
2018-05-13T04:18:11.961Z,3327
2018-05-13T04:18:42.025Z,3350
2018-05-13T04:19:12.035Z,3377
2018-05-13T04:19:42.141Z,3407
2018-05-13T04:20:12.105Z,3437
2018-05-13T04:20:42.196Z,3477
2018-05-13T04:21:12.209Z,3510
2018-05-13T04:21:42.204Z,3537
2018-05-13T04:22:12.221Z,3563
2018-05-13T04:22:42.258Z,3583
2018-05-13T04:23:12.361Z,3607
2018-05-13T04:23:42.407Z,3633
2018-05-13T04:24:12.390Z,3670
2018-05-13T04:24:42.442Z,3707
2018-05-13T04:25:12.462Z,3743
2018-05-13T04:25:42.458Z,3787
2018-05-13T04:26:12.507Z,3820
2018-05-13T04:26:42.510Z,3837
2018-05-13T04:27:12.563Z,3840
2018-05-13T04:28:42.702Z,3837
2018-05-13T04:29:42.680Z,3830
2018-05-13T04:30:12.759Z,3837
2018-05-13T04:30:42.758Z,3840
2018-05-13T04:31:12.862Z,3843
2018-05-13T04:31:42.856Z,3867
2018-05-13T04:32:12.873Z,3877
2018-05-13T04:32:42.882Z,3903
2018-05-13T04:33:12.989Z,3920
2018-05-13T04:33:42.961Z,3943
2018-05-13T04:34:13.042Z,3973
2018-05-13T04:34:43.024Z,4000
2018-05-13T04:35:13.144Z,4027
2018-05-13T04:35:43.142Z,4063
2018-05-13T04:36:13.127Z,4080
2018-05-13T04:36:43.122Z,4107
2018-05-13T04:37:13.186Z,4137
2018-05-13T04:37:43.223Z,4170
2018-05-13T04:38:13.278Z,4190
2018-05-13T04:38:43.275Z,4233
2018-05-13T04:39:13.323Z,4263
2018-05-13T04:39:43.330Z,4280
2018-05-13T04:40:13.403Z,4313
2018-05-13T04:40:43.374Z,4337
2018-05-13T04:41:13.429Z,4363
2018-05-13T04:41:43.434Z,4387
2018-05-13T04:42:13.475Z,4410
2018-05-13T04:42:43.496Z,4427
2018-05-13T04:43:13.561Z,4447
2018-05-13T04:43:43.577Z,4473
2018-05-13T04:44:13.865Z,4487
2018-05-13T04:44:43.909Z,4523
2018-05-13T04:45:14.027Z,4727
2018-05-13T04:45:44.034Z,5167
2018-05-13T04:46:14.025Z,5733
2018-05-13T04:46:44.024Z,6267
2018-05-13T04:47:14.069Z,6677
2018-05-13T04:47:44.101Z,6807
2018-05-13T04:48:14.135Z,6870
2018-05-13T04:48:44.228Z,6903
2018-05-13T04:49:14.177Z,6947
2018-05-13T04:49:44.218Z,7000
2018-05-13T04:50:14.350Z,7057
2018-05-13T04:50:44.313Z,7130
2018-05-13T04:51:14.332Z,7217
2018-05-13T04:51:44.354Z,7307
2018-05-13T04:52:14.453Z,7360
2018-05-13T04:52:44.439Z,7417
2018-05-13T04:53:14.524Z,7410
2018-05-13T04:53:44.504Z,7197
2018-05-13T04:54:14.593Z,6863
2018-05-13T04:54:44.541Z,6887
2018-05-13T04:55:14.640Z,6717
2018-05-13T04:55:44.650Z,6723
2018-05-13T04:56:14.668Z,6797
2018-05-13T04:56:44.675Z,6857
2018-05-13T04:57:14.714Z,7040
2018-05-13T04:57:44.764Z,7247
2018-05-13T04:58:14.773Z,7163
2018-05-13T04:58:44.807Z,7417
2018-05-13T04:59:14.821Z,7863
2018-05-13T04:59:44.825Z,7903
2018-05-13T05:00:14.930Z,8013
2018-05-13T05:00:44.921Z,7883
2018-05-13T05:01:14.969Z,7867
2018-05-13T05:01:44.976Z,7803
2018-05-13T05:02:14.996Z,7717
2018-05-13T05:02:45.061Z,7567
2018-05-13T05:03:15.077Z,7630
2018-05-13T05:03:45.068Z,7430
2018-05-13T05:04:15.145Z,7690
2018-05-13T05:04:45.152Z,7687
2018-05-13T05:05:15.263Z,7850
2018-05-13T05:05:45.209Z,7820
2018-05-13T05:06:15.281Z,7717
2018-05-13T05:06:45.268Z,7720
2018-05-13T05:07:15.333Z,7680
2018-05-13T05:07:45.378Z,7527
2018-05-13T05:08:15.394Z,7297
2018-05-13T05:08:45.420Z,7437
2018-05-13T05:09:15.457Z,7830
2018-05-13T05:09:45.470Z,7913
2018-05-13T05:10:15.776Z,7910
2018-05-13T05:10:45.528Z,8193
2018-05-13T05:11:15.578Z,8180
2018-05-13T05:11:45.619Z,7980
2018-05-13T05:12:15.672Z,7753
2018-05-13T05:12:45.631Z,7073
2018-05-13T05:13:15.706Z,6557
2018-05-13T05:13:45.741Z,6550
2018-05-13T05:14:15.797Z,6573
2018-05-13T05:14:45.793Z,6457
2018-05-13T05:15:15.849Z,6530
2018-05-13T05:15:45.866Z,6933
2018-05-13T05:16:15.909Z,7077
2018-05-13T05:16:45.873Z,7553
2018-05-13T05:17:15.938Z,8083
2018-05-13T05:17:45.976Z,8313
2018-05-13T05:18:16.016Z,8203
2018-05-13T05:18:46.038Z,8057
2018-05-13T05:19:16.075Z,7770
2018-05-13T05:19:46.099Z,7147
2018-05-13T05:20:16.155Z,6937
2018-05-13T05:20:46.165Z,6920
2018-05-13T05:21:16.211Z,6597
2018-05-13T05:21:46.220Z,6460
2018-05-13T05:22:16.275Z,6390
2018-05-13T05:22:46.281Z,6333
2018-05-13T05:23:16.326Z,6387
2018-05-13T05:23:46.351Z,6490
2018-05-13T05:24:16.381Z,7207
2018-05-13T05:24:46.419Z,7580
2018-05-13T05:25:16.427Z,7910
2018-05-13T05:25:46.455Z,8130
2018-05-13T05:26:16.495Z,8133
2018-05-13T05:26:46.485Z,8047
2018-05-13T05:27:16.568Z,7703
2018-05-13T05:27:46.594Z,7810
2018-05-13T05:28:16.604Z,8133
2018-05-13T05:28:46.618Z,7987
2018-05-13T05:29:16.656Z,7503
2018-05-13T05:29:46.692Z,7453
2018-05-13T05:30:16.757Z,7040
2018-05-13T05:30:46.749Z,7970
2018-05-13T05:31:16.816Z,7133
2018-05-13T05:31:46.825Z,7707
2018-05-13T05:32:16.834Z,7383
2018-05-13T05:32:46.852Z,7023
2018-05-13T05:33:16.885Z,7020
2018-05-13T05:33:46.948Z,6983
2018-05-13T05:34:16.957Z,7057
2018-05-13T05:34:46.993Z,7040
2018-05-13T05:35:17.026Z,6930
2018-05-13T05:35:47.059Z,6983
2018-05-13T05:36:17.138Z,7317
2018-05-13T05:36:47.119Z,7010
2018-05-13T05:37:17.125Z,6940
2018-05-13T05:37:47.200Z,6860
2018-05-13T05:38:17.231Z,6863
2018-05-13T05:39:17.298Z,6887
2018-05-13T05:39:47.316Z,6883
2018-05-13T05:40:17.360Z,6893
2018-05-13T05:40:47.424Z,6887
2018-05-13T05:41:17.458Z,6907
2018-05-13T05:41:47.441Z,6917
2018-05-13T05:42:17.513Z,6940
2018-05-13T05:42:47.489Z,6927
2018-05-13T05:43:17.539Z,6970
2018-05-13T05:43:47.571Z,7000
2018-05-13T05:44:17.650Z,7030
2018-05-13T05:44:47.613Z,7003
2018-05-13T05:45:17.679Z,7137
2018-05-13T05:45:47.657Z,7240
2018-05-13T05:46:17.697Z,7120
2018-05-13T05:46:47.753Z,7213
2018-05-13T05:47:17.850Z,7177
2018-05-13T05:47:47.806Z,7160
2018-05-13T05:48:17.922Z,7287
2018-05-13T05:48:47.882Z,7120
2018-05-13T05:49:17.890Z,7243
2018-05-13T05:49:47.983Z,7453
2018-05-13T05:50:18.007Z,7250
2018-05-13T05:50:48.028Z,7087
2018-05-13T05:51:18.064Z,7110
2018-05-13T05:51:48.093Z,7167
2018-05-13T05:52:18.164Z,7100
2018-05-13T05:52:48.108Z,7170
2018-05-13T05:53:18.196Z,7173
2018-05-13T05:53:48.169Z,7210
2018-05-13T05:54:18.213Z,7197
2018-05-13T05:54:48.278Z,7183
2018-05-13T05:55:18.236Z,7197
2018-05-13T05:55:48.312Z,7227
2018-05-13T05:56:18.308Z,7253
2018-05-13T05:57:18.467Z,7323
2018-05-13T05:57:48.430Z,7340
2018-05-13T05:58:18.486Z,7337
2018-05-13T05:58:48.518Z,7327
2018-05-13T05:59:18.552Z,7357
2018-05-13T05:59:48.537Z,7413
2018-05-13T06:00:18.629Z,7433
2018-05-13T06:00:48.596Z,7460
2018-05-13T06:01:18.664Z,7447
2018-05-13T06:01:48.705Z,7430
2018-05-13T06:02:18.739Z,7490
2018-05-13T06:02:48.764Z,7463
2018-05-13T06:03:18.785Z,7467
2018-05-13T06:03:48.818Z,7453
2018-05-13T06:04:18.820Z,7457
2018-05-13T06:04:48.838Z,7453
2018-05-13T06:05:18.913Z,7467
2018-05-13T06:05:48.930Z,7483
2018-05-13T06:06:18.967Z,7570
2018-05-13T06:06:49.021Z,7560
2018-05-13T06:07:19.035Z,7603
2018-05-13T06:07:49.071Z,7533
2018-05-13T06:08:19.105Z,7557
2018-05-13T06:08:49.085Z,7587
2018-05-13T06:09:19.174Z,7640
2018-05-13T06:09:49.125Z,7667
2018-05-13T06:10:19.212Z,7733
2018-05-13T06:10:49.201Z,7783
2018-05-13T06:11:19.284Z,7810
2018-05-13T06:11:49.332Z,7820
2018-05-13T06:12:19.410Z,7747
2018-05-13T06:12:49.368Z,8063
2018-05-13T06:13:19.421Z,7893
2018-05-13T06:13:49.438Z,8320
2018-05-13T06:14:19.444Z,8687
2018-05-13T06:14:49.470Z,7863
2018-05-13T06:15:19.545Z,9223
2018-05-13T06:15:49.502Z,7817
2018-05-13T06:16:19.598Z,7960
2018-05-13T06:16:49.580Z,8070
2018-05-13T06:17:19.594Z,8027
2018-05-13T06:17:49.685Z,8017
2018-05-13T06:18:19.725Z,8063
2018-05-13T06:18:49.686Z,8097
2018-05-13T06:19:19.742Z,8087
2018-05-13T06:19:49.797Z,8050
2018-05-13T06:20:19.800Z,8067
2018-05-13T06:20:49.812Z,8340
2018-05-13T06:21:20.032Z,8067
2018-05-13T06:21:49.873Z,8083
2018-05-13T06:22:19.900Z,8303
2018-05-13T06:22:49.931Z,8380
2018-05-13T06:23:20.024Z,8140
2018-05-13T06:23:50.035Z,9467
2018-05-13T06:24:20.027Z,8303
2018-05-13T06:24:50.112Z,8480
2018-05-13T06:25:20.176Z,8180
2018-05-13T06:25:50.169Z,8510
2018-05-13T06:26:20.153Z,8177
2018-05-13T06:26:50.192Z,8143
2018-05-13T06:27:20.262Z,8107
2018-05-13T06:27:50.278Z,8280
2018-05-13T06:28:20.335Z,8757
2018-05-13T06:28:50.330Z,8717
2018-05-13T06:29:20.381Z,9867
2018-05-13T06:29:50.372Z,8647
2018-05-13T06:30:20.411Z,8987
2018-05-13T06:30:50.486Z,8383
2018-05-13T06:31:20.452Z,8197
2018-05-13T06:31:50.581Z,8227
2018-05-13T06:32:20.561Z,8310
2018-05-13T06:32:50.613Z,8250
2018-05-13T06:33:20.637Z,8313
2018-05-13T06:33:50.709Z,8330
2018-05-13T06:34:20.663Z,8323
2018-05-13T06:34:50.754Z,8343
2018-05-13T06:35:20.696Z,8473
2018-05-13T06:35:50.826Z,8510
2018-05-13T06:36:20.761Z,8530
2018-05-13T06:36:50.813Z,8550
2018-05-13T06:37:20.823Z,8533
2018-05-13T06:37:50.900Z,8427
2018-05-13T06:38:20.982Z,8560
2018-05-13T06:38:50.949Z,8660
2018-05-13T06:39:21.000Z,8697
2018-05-13T06:39:51.042Z,8613
2018-05-13T06:40:21.062Z,8697
2018-05-13T06:40:51.110Z,8687
2018-05-13T06:41:21.147Z,8710
2018-05-13T06:41:51.143Z,8753
2018-05-13T06:42:21.170Z,8787
2018-05-13T06:42:51.194Z,8780
2018-05-13T06:43:21.292Z,9080
2018-05-13T06:43:51.302Z,8763
2018-05-13T06:44:21.293Z,9007
2018-05-13T06:44:51.348Z,8873
2018-05-13T06:45:51.403Z,8813
2018-05-13T06:46:21.417Z,8983
2018-05-13T06:46:51.428Z,8973
2018-05-13T06:47:21.485Z,8963
2018-05-13T06:47:51.520Z,9020
2018-05-13T06:48:21.522Z,9010
2018-05-13T06:48:51.581Z,9053
2018-05-13T06:49:21.628Z,8993
2018-05-13T06:49:51.645Z,8917
2018-05-13T06:50:21.675Z,8957
2018-05-13T06:50:51.805Z,9087
2018-05-13T06:51:21.883Z,9093
2018-05-13T06:51:51.765Z,9173
2018-05-13T06:52:51.827Z,9140
2018-05-13T06:53:22.110Z,9167
2018-05-13T06:53:51.849Z,9307
2018-05-13T06:54:22.019Z,9293
2018-05-13T06:54:51.988Z,9470
2018-05-13T06:55:21.981Z,9560
2018-05-13T06:55:52.045Z,9793
2018-05-13T06:56:21.991Z,9900
2018-05-13T06:56:52.079Z,10197
2018-05-13T06:57:22.169Z,10733
2018-05-13T06:57:52.142Z,9723
2018-05-13T06:58:22.169Z,10627
2018-05-13T06:58:52.194Z,13887
2018-05-13T06:59:22.253Z,13507
2018-05-13T06:59:52.255Z,13287
2018-05-13T07:00:22.285Z,11537
2018-05-13T07:00:52.378Z,10897
2018-05-13T07:01:22.355Z,10510
2018-05-13T07:01:52.364Z,9963
2018-05-13T07:02:22.415Z,10043
2018-05-13T07:02:52.551Z,10160
2018-05-13T07:03:22.470Z,10047
2018-05-13T07:03:52.507Z,10127
2018-05-13T07:04:22.557Z,10350
2018-05-13T07:04:52.573Z,10393
2018-05-13T07:05:22.561Z,10810
2018-05-13T07:05:52.712Z,10630
2018-05-13T07:06:22.655Z,10497
2018-05-13T07:06:52.670Z,10560
2018-05-13T07:07:23.606Z,10750
2018-05-13T07:07:54.035Z,10573
2018-05-13T07:08:24.169Z,10610
2018-05-13T07:08:54.319Z,10507
2018-05-13T07:09:24.343Z,10850
2018-05-13T07:09:54.472Z,11507
2018-05-13T07:10:24.558Z,11377
2018-05-13T07:10:54.751Z,12483
2018-05-13T07:11:24.715Z,12927
2018-05-13T07:11:54.845Z,11663
2018-05-13T07:12:24.894Z,12210
2018-05-13T07:12:55.043Z,11847
2018-05-13T07:13:25.107Z,12083
2018-05-13T07:13:55.322Z,12267
2018-05-13T07:14:25.346Z,12497
2018-05-13T07:14:55.522Z,12680
2018-05-13T07:15:25.528Z,12610
2018-05-13T07:15:55.713Z,12487
2018-05-13T07:16:25.743Z,12617
2018-05-13T07:16:55.834Z,12887
2018-05-13T07:17:25.869Z,13097
2018-05-13T07:17:56.027Z,13217
2018-05-13T07:18:26.038Z,13383
2018-05-13T07:18:56.225Z,13713
2018-05-13T07:19:26.228Z,13810
2018-05-13T07:19:56.459Z,13727
2018-05-13T07:20:26.444Z,14000
2018-05-13T07:20:56.613Z,14097
2018-05-13T07:21:26.612Z,14180
2018-05-13T07:21:56.818Z,14327
2018-05-13T07:22:26.779Z,14387
2018-05-13T07:22:56.965Z,14167
2018-05-13T07:23:26.963Z,14327
2018-05-13T07:23:57.175Z,14293
2018-05-13T07:24:27.192Z,14000
2018-05-13T07:24:57.337Z,13813
2018-05-13T07:25:27.368Z,13193
2018-05-13T07:25:57.512Z,13547
2018-05-13T07:26:27.829Z,13693
2018-05-13T07:26:58.006Z,15257
2018-05-13T07:27:28.093Z,15827
2018-05-13T07:27:58.268Z,20273
2018-05-13T07:28:28.284Z,20467
2018-05-13T07:28:58.437Z,14737
2018-05-13T07:29:28.444Z,13790
2018-05-13T07:29:58.626Z,12997
2018-05-13T07:30:28.669Z,12940
2018-05-13T07:30:58.821Z,12780
2018-05-13T07:31:28.797Z,13337
2018-05-13T07:31:58.963Z,14153
2018-05-13T07:32:28.993Z,12853
2018-05-13T07:32:59.199Z,12817
2018-05-13T07:33:29.243Z,12693
2018-05-13T07:33:59.335Z,12480
2018-05-13T07:34:29.379Z,12717
2018-05-13T07:34:59.545Z,12477
2018-05-13T07:35:29.593Z,12447
2018-05-13T07:35:59.710Z,14730
2018-05-13T07:36:29.767Z,12347
2018-05-13T07:36:59.922Z,12180
2018-05-13T07:37:29.914Z,12310
2018-05-13T07:38:00.066Z,11550
2018-05-13T07:38:30.131Z,11510
2018-05-13T07:39:01.157Z,11340
2018-05-13T07:39:30.323Z,11093
2018-05-13T07:40:01.558Z,12020
2018-05-13T07:40:30.474Z,11213
2018-05-13T07:41:01.570Z,10937
2018-05-13T07:41:30.698Z,11663
2018-05-13T07:42:00.886Z,11030
2018-05-13T07:42:30.894Z,11053
2018-05-13T07:43:01.536Z,10493
2018-05-13T07:43:31.140Z,11203
2018-05-13T07:44:01.693Z,10670
2018-05-13T07:44:31.265Z,10543
2018-05-13T07:45:01.357Z,11150
2018-05-13T07:45:31.409Z,10757
2018-05-13T07:46:01.807Z,10403
2018-05-13T07:46:31.636Z,10397
2018-05-13T07:47:01.989Z,10507
2018-05-13T07:47:31.821Z,10460
2018-05-13T07:48:01.911Z,10423
2018-05-13T07:48:31.939Z,10570
2018-05-13T07:49:32.181Z,10543
2018-05-13T07:50:02.277Z,10560
2018-05-13T07:50:32.350Z,10657
2018-05-13T07:51:02.596Z,10497
2018-05-13T07:51:32.547Z,10370
2018-05-13T07:52:02.662Z,10517
2018-05-13T07:52:32.710Z,10463
2018-05-13T07:53:02.860Z,10600
2018-05-13T07:53:32.880Z,10567
2018-05-13T07:54:03.057Z,10350
2018-05-13T07:54:33.040Z,10393
2018-05-13T07:55:03.214Z,10340
2018-05-13T07:55:33.256Z,10260
2018-05-13T07:56:03.407Z,10097
2018-05-13T07:56:33.444Z,10160
2018-05-13T07:57:03.570Z,10233
2018-05-13T07:57:33.645Z,10373
2018-05-13T07:58:03.782Z,10437
2018-05-13T07:58:33.818Z,10457
2018-05-13T07:59:03.942Z,10730
2018-05-13T07:59:33.946Z,10963
2018-05-13T08:00:04.130Z,11023
2018-05-13T08:00:34.181Z,11033
2018-05-13T08:01:04.380Z,11027
2018-05-13T08:01:34.440Z,11067
2018-05-13T08:02:04.471Z,10910
2018-05-13T08:02:34.523Z,10783
2018-05-13T08:03:04.680Z,10807
2018-05-13T08:03:34.709Z,10793
2018-05-13T08:04:04.863Z,10897
2018-05-13T08:04:34.905Z,10787
2018-05-13T08:05:05.049Z,10997
2018-05-13T08:05:35.100Z,11020
2018-05-13T08:06:05.319Z,10887
2018-05-13T08:06:35.285Z,11050
2018-05-13T08:07:05.452Z,10953
2018-05-13T08:07:35.471Z,10867
2018-05-13T08:08:05.668Z,10740
2018-05-13T08:08:35.672Z,10737
2018-05-13T08:09:05.806Z,10803
2018-05-13T08:09:35.890Z,10800
2018-05-13T08:10:05.971Z,10660
2018-05-13T08:10:36.027Z,10710
2018-05-13T08:11:06.213Z,10787
2018-05-13T08:11:36.224Z,10717
2018-05-13T08:12:06.472Z,10940
2018-05-13T08:12:36.417Z,10637
2018-05-13T08:13:06.557Z,11000
2018-05-13T08:13:36.611Z,11093
2018-05-13T08:14:06.842Z,10997
2018-05-13T08:14:36.805Z,11007
2018-05-13T08:15:06.955Z,10873
2018-05-13T08:15:36.990Z,10977
2018-05-13T08:16:07.187Z,11093
2018-05-13T08:16:37.186Z,11090
2018-05-13T08:17:07.340Z,11153
2018-05-13T08:17:37.320Z,11087
2018-05-13T08:18:07.509Z,11190
2018-05-13T08:18:37.551Z,11167
2018-05-13T08:19:07.668Z,11093
2018-05-13T08:19:37.689Z,10937
2018-05-13T08:20:07.980Z,10850
2018-05-13T08:20:37.920Z,11100
2018-05-13T08:21:08.066Z,11077
2018-05-13T08:21:38.076Z,11163
2018-05-13T08:22:08.261Z,11240
2018-05-13T08:22:38.348Z,11323
2018-05-13T08:23:08.442Z,11353
2018-05-13T08:23:38.506Z,11370
2018-05-13T08:24:08.605Z,11400
2018-05-13T08:24:38.712Z,11417
2018-05-13T08:25:08.856Z,11483
2018-05-13T08:25:38.864Z,11693
2018-05-13T08:26:08.990Z,11550
2018-05-13T08:26:39.018Z,11087
2018-05-13T08:27:09.172Z,11217
2018-05-13T08:27:39.223Z,11523
2018-05-13T08:28:09.364Z,11373
2018-05-13T08:28:39.392Z,11593
2018-05-13T08:29:09.555Z,11637
2018-05-13T08:29:39.586Z,11733
2018-05-13T08:30:09.780Z,11650
2018-05-13T08:30:39.740Z,11660
2018-05-13T08:31:09.922Z,11510
2018-05-13T08:31:39.963Z,11537
2018-05-13T08:32:10.087Z,11517
2018-05-13T08:32:40.138Z,11390
2018-05-13T08:33:10.308Z,11393
2018-05-13T08:33:40.310Z,11183
2018-05-13T08:34:10.512Z,11553
2018-05-13T08:34:40.485Z,11617
2018-05-13T08:35:10.653Z,11577
2018-05-13T08:35:40.680Z,11383
2018-05-13T08:36:10.864Z,11510
2018-05-13T08:36:40.862Z,11650
2018-05-13T08:37:11.005Z,11513
2018-05-13T08:37:41.048Z,11627
2018-05-13T08:38:11.189Z,11573
2018-05-13T08:38:41.219Z,11373
2018-05-13T08:39:11.361Z,11503
2018-05-13T08:39:41.453Z,11370
2018-05-13T08:40:11.647Z,11573
2018-05-13T08:40:41.660Z,11543
2018-05-13T08:41:11.818Z,11603
2018-05-13T08:41:41.814Z,11610
2018-05-13T08:42:11.980Z,11803
2018-05-13T08:42:42.050Z,11877
2018-05-13T08:43:12.264Z,11887
2018-05-13T08:43:42.246Z,11990
2018-05-13T08:44:12.418Z,12117
2018-05-13T08:44:42.432Z,12203
2018-05-13T08:45:12.584Z,12330
2018-05-13T08:45:42.635Z,12297
2018-05-13T08:46:12.781Z,12273
2018-05-13T08:46:42.808Z,12373
2018-05-13T08:47:12.980Z,12450
2018-05-13T08:47:42.972Z,12403
2018-05-13T08:48:13.185Z,12310
2018-05-13T08:48:43.197Z,12370
2018-05-13T08:49:13.394Z,12240
2018-05-13T08:49:43.463Z,12337
2018-05-13T08:50:13.600Z,12477
2018-05-13T08:50:43.601Z,12553
2018-05-13T08:51:13.780Z,12467
2018-05-13T08:51:43.861Z,12537
2018-05-13T08:52:13.956Z,12580
2018-05-13T08:52:43.990Z,12763
2018-05-13T08:53:14.188Z,12893
2018-05-13T08:53:44.304Z,12753
2018-05-13T08:54:14.374Z,13140
2018-05-13T08:54:44.363Z,12560
2018-05-13T08:55:14.509Z,12653
2018-05-13T08:55:44.602Z,12557
2018-05-13T08:56:14.756Z,12607
2018-05-13T08:56:44.762Z,12803
2018-05-13T08:57:14.934Z,12757
2018-05-13T08:58:15.111Z,13000
2018-05-13T08:58:45.120Z,12917
2018-05-13T08:59:15.287Z,13003
2018-05-13T08:59:45.372Z,13050
2018-05-13T09:00:15.499Z,13167
2018-05-13T09:00:45.522Z,13357
2018-05-13T09:01:15.705Z,13193
2018-05-13T09:01:45.740Z,13570
2018-05-13T09:02:15.874Z,13133
2018-05-13T09:02:45.928Z,13177
2018-05-13T09:03:16.063Z,13103
2018-05-13T09:03:46.133Z,12963
2018-05-13T09:04:16.253Z,13417
2018-05-13T09:04:46.301Z,13173
2018-05-13T09:05:16.472Z,13517
2018-05-13T09:05:46.460Z,14623
2018-05-13T09:06:16.601Z,13157
2018-05-13T09:06:46.629Z,14003
2018-05-13T09:07:16.783Z,16190
2018-05-13T09:07:46.804Z,19440
2018-05-13T09:08:16.961Z,14550
2018-05-13T09:08:46.989Z,16027
2018-05-13T09:09:17.164Z,13663
2018-05-13T09:09:47.217Z,18010
2018-05-13T09:10:17.354Z,27043
2018-05-13T09:10:47.425Z,23353
2018-05-13T09:11:17.553Z,27357
2018-05-13T09:11:47.587Z,45883
2018-05-13T09:12:17.764Z,24840
2018-05-13T09:12:47.783Z,49013
2018-05-13T09:13:17.940Z,13317
2018-05-13T09:13:47.954Z,16297
2018-05-13T09:14:18.151Z,45560
2018-05-13T09:14:48.146Z,37143
2018-05-13T09:15:18.291Z,15160
2018-05-13T09:15:48.353Z,35573
2018-05-13T09:16:18.470Z,15010
2018-05-13T09:16:48.485Z,26793
2018-05-13T09:17:18.698Z,18157
2018-05-13T09:17:48.698Z,19503
2018-05-13T09:18:18.803Z,23957
2018-05-13T09:18:48.906Z,52870
2018-05-13T09:19:18.993Z,31123
2018-05-13T09:19:49.061Z,33707
2018-05-13T09:20:19.246Z,32620
2018-05-13T09:20:49.318Z,15467
2018-05-13T09:21:19.413Z,46140
2018-05-13T09:21:49.433Z,43263
2018-05-13T09:22:19.573Z,52753
2018-05-13T09:22:49.563Z,16487
2018-05-13T09:23:19.778Z,34150
2018-05-13T09:23:49.754Z,44257
2018-05-13T09:24:19.921Z,53480
2018-05-13T09:24:49.938Z,33057
2018-05-13T09:25:20.141Z,42903
2018-05-13T09:25:50.183Z,28227
2018-05-13T09:26:20.388Z,25070
2018-05-13T09:26:50.470Z,26573
2018-05-13T09:27:20.674Z,26850
2018-05-13T09:27:50.727Z,23623
2018-05-13T09:28:20.806Z,32747
2018-05-13T09:28:51.465Z,52420
2018-05-13T09:29:21.625Z,25927
2018-05-13T09:29:51.639Z,26367
2018-05-13T09:30:21.852Z,17413
2018-05-13T09:30:51.896Z,54287
2018-05-13T09:31:22.019Z,29747
2018-05-13T09:31:52.105Z,17420
2018-05-13T09:32:22.914Z,54330
2018-05-13T09:32:52.999Z,22200
2018-05-13T09:33:23.140Z,37497
2018-05-13T09:33:53.135Z,20293
2018-05-13T09:34:23.323Z,22420
2018-05-13T09:34:53.345Z,24830
2018-05-13T09:35:23.538Z,50883
2018-05-13T09:35:53.568Z,56397
2018-05-13T09:36:23.708Z,55287
2018-05-13T09:36:53.713Z,55107
2018-05-13T09:37:23.886Z,52797
2018-05-13T09:37:53.913Z,53580
2018-05-13T09:38:24.065Z,53710
2018-05-13T09:38:54.095Z,56800
2018-05-13T09:39:24.373Z,56547
2018-05-13T09:39:54.294Z,52207
2018-05-13T09:40:24.437Z,49343
2018-05-13T09:40:55.290Z,47777
2018-05-13T09:41:25.452Z,49073
2018-05-13T09:41:55.462Z,52857
2018-05-13T09:42:25.834Z,50143
2018-05-13T09:42:55.863Z,49477
2018-05-13T09:43:26.025Z,53707
2018-05-13T09:43:56.053Z,56450
2018-05-13T09:44:26.274Z,56500
2018-05-13T09:44:56.258Z,55823